createdAt,value
2016-10-19T00:00:23.866Z,99.99
2016-10-19T00:02:23.904Z,99.99
2016-10-19T00:03:23.977Z,99.99
2016-10-19T00:04:23.952Z,99.99
2016-10-19T00:05:23.973Z,99.99
2016-10-19T00:06:38.920Z,99.99
2016-10-19T00:07:24.016Z,99.99
2016-10-19T00:08:24.036Z,99.99
2016-10-19T00:09:24.056Z,99.99
2016-10-19T00:10:24.085Z,99.99
2016-10-19T00:11:24.107Z,99.99
2016-10-19T00:12:24.125Z,99.99
2016-10-19T00:13:24.149Z,99.99
2016-10-19T00:14:24.172Z,99.99
2016-10-19T00:16:24.210Z,99.99
2016-10-19T00:17:24.238Z,99.99
2016-10-19T00:19:24.276Z,99.99
2016-10-19T00:20:24.300Z,99.99
2016-10-19T00:21:24.320Z,99.99
2016-10-19T00:22:24.344Z,99.99
2016-10-19T00:23:24.366Z,99.99
2016-10-19T00:24:24.383Z,99.99
2016-10-19T00:25:24.405Z,99.99
2016-10-19T00:26:24.428Z,99.99
2016-10-19T00:27:24.452Z,99.99
2016-10-19T00:29:24.497Z,99.99
2016-10-19T00:30:24.516Z,99.99
2016-10-19T00:32:24.564Z,99.99
2016-10-19T00:33:24.587Z,99.99
2016-10-19T00:34:24.605Z,99.99
2016-10-19T00:35:24.623Z,99.99
2016-10-19T00:37:24.670Z,99.99
2016-10-19T00:38:39.611Z,99.99
2016-10-19T00:39:24.713Z,99.99
2016-10-19T00:40:24.739Z,99.99
2016-10-19T00:41:24.759Z,99.99
2016-10-19T00:42:24.783Z,99.99
2016-10-19T00:43:24.801Z,99.99
2016-10-19T00:44:24.821Z,99.99
2016-10-19T00:45:24.843Z,99.99
2016-10-19T00:46:24.869Z,99.99
2016-10-19T00:47:24.889Z,99.99
2016-10-19T00:49:24.932Z,99.99
2016-10-19T00:50:24.956Z,99.99
2016-10-19T00:51:24.978Z,99.99
2016-10-19T00:52:25.001Z,99.99
2016-10-19T00:53:25.024Z,99.99
2016-10-19T00:54:39.960Z,99.99
2016-10-19T00:55:25.062Z,99.99
2016-10-19T00:56:25.090Z,99.99
2016-10-19T00:57:25.111Z,99.99
2016-10-19T00:58:25.134Z,99.99
2016-10-19T00:59:25.147Z,99.99
2016-10-19T01:00:25.178Z,99.99
2016-10-19T01:01:25.200Z,99.99
2016-10-19T01:02:25.215Z,99.99
2016-10-19T01:03:25.239Z,99.99
2016-10-19T01:04:25.413Z,99.99
2016-10-19T01:05:25.283Z,99.99
2016-10-19T01:06:25.305Z,99.99
2016-10-19T01:07:25.326Z,99.99
2016-10-19T01:08:25.346Z,99.99
2016-10-19T01:09:25.368Z,99.99
2016-10-19T01:10:40.311Z,99.99
2016-10-19T01:11:25.412Z,99.99
2016-10-19T01:12:25.435Z,99.99
2016-10-19T01:13:25.762Z,99.99
2016-10-19T01:14:25.476Z,99.99
2016-10-19T01:17:25.544Z,99.99
2016-10-19T01:18:25.566Z,99.99
2016-10-19T01:19:25.597Z,99.99
2016-10-19T01:20:25.608Z,99.99
2016-10-19T01:21:25.633Z,99.99
2016-10-19T01:22:25.659Z,99.99
2016-10-19T01:23:25.676Z,99.99
2016-10-19T01:24:25.701Z,99.99
2016-10-19T01:25:25.721Z,99.99
2016-10-19T01:26:40.661Z,99.99
2016-10-19T01:27:25.767Z,99.99
2016-10-19T01:28:25.787Z,99.99
2016-10-19T01:29:25.812Z,99.99
2016-10-19T01:30:26.084Z,99.99
2016-10-19T01:31:25.849Z,99.99
2016-10-19T01:32:25.873Z,99.99
2016-10-19T01:33:25.896Z,99.99
2016-10-19T01:34:25.918Z,99.99
2016-10-19T01:35:25.937Z,99.99
2016-10-19T01:36:25.961Z,99.99
2016-10-19T01:37:25.981Z,99.99
2016-10-19T01:39:26.026Z,99.99
2016-10-19T01:40:26.102Z,99.99
2016-10-19T01:41:40.988Z,99.99
2016-10-19T01:42:26.091Z,99.99
2016-10-19T01:43:26.112Z,99.99
2016-10-19T01:44:26.134Z,99.99
2016-10-19T01:45:26.207Z,99.99
2016-10-19T01:46:26.179Z,99.99
2016-10-19T01:47:26.204Z,99.99
2016-10-19T01:48:26.227Z,99.99
2016-10-19T01:49:26.495Z,99.99
2016-10-19T01:50:26.268Z,99.99
2016-10-19T01:51:26.288Z,99.99
2016-10-19T01:52:26.313Z,99.99
2016-10-19T01:53:26.333Z,99.99
2016-10-19T01:54:26.352Z,99.99
2016-10-19T01:55:26.375Z,99.99
2016-10-19T01:56:26.399Z,99.99
2016-10-19T01:57:26.417Z,99.99
2016-10-19T01:58:26.439Z,99.99
2016-10-19T01:59:26.466Z,99.99
2016-10-19T02:00:26.485Z,99.99
2016-10-19T02:01:26.538Z,99.99
2016-10-19T02:02:26.525Z,99.99
2016-10-19T02:04:26.574Z,99.99
2016-10-19T02:05:26.592Z,99.99
2016-10-19T02:06:26.620Z,99.99
2016-10-19T02:07:26.686Z,99.99
2016-10-19T02:08:26.662Z,99.99
2016-10-19T02:09:26.682Z,99.99
2016-10-19T02:10:26.704Z,99.99
2016-10-19T02:11:26.726Z,99.99
2016-10-19T02:12:26.749Z,99.99
2016-10-19T02:13:41.686Z,99.99
2016-10-19T02:14:26.789Z,99.99
2016-10-19T02:15:26.852Z,99.99
2016-10-19T02:16:26.836Z,99.99
2016-10-19T02:17:26.860Z,99.99
2016-10-19T02:18:26.879Z,99.99
2016-10-19T02:19:26.902Z,99.99
2016-10-19T02:20:26.920Z,99.99
2016-10-19T02:21:26.949Z,99.99
2016-10-19T02:23:26.987Z,99.99
2016-10-19T02:25:27.029Z,99.99
2016-10-19T02:26:27.055Z,99.99
2016-10-19T02:27:27.077Z,99.99
2016-10-19T02:28:27.094Z,99.99
2016-10-19T02:29:42.038Z,99.99
2016-10-19T02:30:27.141Z,99.99
2016-10-19T02:31:27.162Z,99.99
2016-10-19T02:32:27.191Z,99.99
2016-10-19T02:33:27.208Z,99.99
2016-10-19T02:34:27.226Z,99.99
2016-10-19T02:35:27.252Z,99.99
2016-10-19T02:36:27.277Z,99.99
2016-10-19T02:37:27.291Z,99.99
2016-10-19T02:38:27.313Z,99.99
2016-10-19T02:39:27.335Z,99.99
2016-10-19T02:40:27.356Z,99.99
2016-10-19T02:41:27.380Z,99.99
2016-10-19T02:42:27.405Z,99.99
2016-10-19T02:43:27.527Z,99.99
2016-10-19T02:44:27.696Z,99.99
2016-10-19T02:45:42.386Z,99.99
2016-10-19T02:46:27.493Z,99.99
2016-10-19T02:47:27.509Z,99.99
2016-10-19T02:48:27.536Z,99.99
2016-10-19T02:49:27.555Z,99.99
2016-10-19T02:50:27.578Z,99.99
2016-10-19T02:51:27.611Z,99.99
2016-10-19T02:52:27.869Z,99.99
2016-10-19T02:53:27.960Z,99.99
2016-10-19T02:55:27.686Z,99.99
2016-10-19T02:56:27.705Z,99.99
2016-10-19T02:57:27.732Z,99.99
2016-10-19T02:59:27.775Z,99.99
2016-10-19T03:00:27.794Z,99.99
2016-10-19T03:01:42.739Z,99.99
2016-10-19T03:02:27.839Z,99.99
2016-10-19T03:03:27.866Z,99.99
2016-10-19T03:04:27.885Z,99.99
2016-10-19T03:05:27.903Z,99.99
2016-10-19T03:06:27.928Z,99.99
2016-10-19T03:07:27.956Z,99.99
2016-10-19T03:08:27.975Z,99.99
2016-10-19T03:09:27.999Z,99.99
2016-10-19T03:10:28.018Z,99.99
2016-10-19T03:11:28.041Z,99.99
2016-10-19T03:12:28.064Z,99.99
2016-10-19T03:13:28.119Z,99.99
2016-10-19T03:14:28.104Z,99.99
2016-10-19T03:15:28.123Z,99.99
2016-10-19T03:16:43.067Z,99.99
2016-10-19T03:17:28.174Z,99.99
2016-10-19T03:18:28.193Z,99.99
2016-10-19T03:19:28.217Z,99.99
2016-10-19T03:20:28.234Z,99.99
2016-10-19T03:21:28.326Z,99.99
2016-10-19T03:22:28.283Z,99.99
2016-10-19T03:23:28.303Z,99.99
2016-10-19T03:24:28.325Z,99.99
2016-10-19T03:25:28.347Z,99.99
2016-10-19T03:26:28.408Z,99.99
2016-10-19T03:28:28.418Z,99.99
2016-10-19T03:29:28.437Z,99.99
2016-10-19T03:30:28.454Z,99.99
2016-10-19T03:31:28.477Z,99.99
2016-10-19T03:32:28.499Z,99.99
2016-10-19T03:33:28.522Z,99.99
2016-10-19T03:34:28.549Z,99.99
2016-10-19T03:35:28.569Z,99.99
2016-10-19T03:36:28.584Z,99.99
2016-10-19T03:37:28.646Z,99.99
2016-10-19T03:38:28.642Z,99.99
2016-10-19T03:39:28.657Z,99.99
2016-10-19T03:40:28.676Z,99.99
2016-10-19T03:42:28.722Z,99.99
2016-10-19T03:43:28.746Z,99.99
2016-10-19T03:46:28.806Z,99.99
2016-10-19T03:47:28.870Z,99.99
2016-10-19T03:48:43.768Z,99.99
2016-10-19T03:49:28.875Z,99.99
2016-10-19T03:50:28.892Z,99.99
2016-10-19T03:51:28.916Z,99.99
2016-10-19T03:52:29.191Z,99.99
2016-10-19T03:53:28.964Z,99.99
2016-10-19T03:54:28.983Z,99.99
2016-10-19T03:55:29.002Z,99.99
2016-10-19T03:56:29.022Z,99.99
2016-10-19T03:58:29.072Z,99.99
2016-10-19T03:59:29.093Z,99.99
2016-10-19T04:00:29.111Z,99.99
2016-10-19T04:02:29.155Z,99.99
2016-10-19T04:03:29.213Z,99.99
2016-10-19T04:04:44.118Z,99.99
2016-10-19T04:05:29.227Z,99.99
2016-10-19T04:06:29.242Z,99.99
2016-10-19T04:07:29.272Z,99.99
2016-10-19T04:08:29.286Z,99.99
2016-10-19T04:09:29.310Z,99.99
2016-10-19T04:11:29.349Z,99.99
2016-10-19T04:13:29.397Z,99.99
2016-10-19T04:14:29.418Z,99.99
2016-10-19T04:15:29.445Z,99.99
2016-10-19T04:16:29.468Z,99.99
2016-10-19T04:17:29.485Z,99.99
2016-10-19T04:18:29.510Z,99.99
2016-10-19T04:19:29.531Z,99.99
2016-10-19T04:20:44.466Z,99.99
2016-10-19T04:21:29.570Z,99.99
2016-10-19T04:22:29.595Z,99.99
2016-10-19T04:23:29.619Z,99.99
2016-10-19T04:24:29.639Z,99.99
2016-10-19T04:25:29.663Z,99.99
2016-10-19T04:26:29.680Z,99.99
2016-10-19T04:27:29.701Z,99.99
2016-10-19T04:28:29.728Z,99.99
2016-10-19T04:29:29.745Z,99.99
2016-10-19T04:30:29.766Z,99.99
2016-10-19T04:31:29.787Z,99.99
2016-10-19T04:33:29.836Z,99.99
2016-10-19T04:34:29.857Z,99.99
2016-10-19T04:35:29.876Z,99.99
2016-10-19T04:36:44.817Z,99.99
2016-10-19T04:37:29.923Z,99.99
2016-10-19T04:38:29.938Z,99.99
2016-10-19T04:39:29.962Z,99.99
2016-10-19T04:40:29.984Z,99.99
2016-10-19T04:41:30.009Z,99.99
2016-10-19T04:42:30.029Z,99.99
2016-10-19T04:43:30.049Z,99.99
2016-10-19T04:44:30.072Z,99.99
2016-10-19T04:45:30.097Z,99.99
2016-10-19T04:46:30.113Z,99.99
2016-10-19T04:47:30.141Z,99.99
2016-10-19T04:49:30.185Z,99.99
2016-10-19T04:50:30.207Z,99.99
2016-10-19T04:51:45.145Z,99.99
2016-10-19T04:52:30.248Z,99.99
2016-10-19T04:53:30.272Z,99.99
2016-10-19T04:54:30.289Z,99.99
2016-10-19T04:55:30.316Z,99.99
2016-10-19T04:56:30.333Z,99.99
2016-10-19T04:57:30.355Z,99.99
2016-10-19T04:58:30.377Z,99.99
2016-10-19T04:59:30.399Z,99.99
2016-10-19T05:01:30.441Z,99.99
2016-10-19T05:02:30.467Z,99.99
2016-10-19T05:03:30.488Z,99.99
2016-10-19T05:04:30.507Z,99.99
2016-10-19T05:05:30.532Z,99.99
2016-10-19T05:06:30.555Z,99.99
2016-10-19T05:07:30.577Z,99.99
2016-10-19T05:08:30.596Z,99.99
2016-10-19T05:09:30.617Z,99.99
2016-10-19T05:10:30.643Z,99.99
2016-10-19T05:12:30.685Z,99.99
2016-10-19T05:13:30.707Z,99.99
2016-10-19T05:14:31.030Z,99.99
2016-10-19T05:15:30.747Z,99.99
2016-10-19T05:16:30.766Z,99.99
2016-10-19T05:17:30.790Z,99.99
2016-10-19T05:20:30.857Z,99.99
2016-10-19T05:21:30.880Z,99.99
2016-10-19T05:22:30.900Z,99.99
2016-10-19T05:23:45.840Z,99.99
2016-10-19T05:24:30.941Z,99.99
2016-10-19T05:25:30.968Z,99.99
2016-10-19T05:26:30.991Z,99.99
2016-10-19T05:27:31.013Z,99.99
2016-10-19T05:28:45.947Z,99.99
2016-10-19T05:29:31.053Z,99.99
2016-10-19T05:30:31.076Z,99.99
2016-10-19T05:32:31.120Z,99.99
2016-10-19T05:33:31.136Z,99.99
2016-10-19T05:34:31.160Z,99.99
2016-10-19T05:35:31.180Z,99.99
2016-10-19T05:36:31.206Z,99.99
2016-10-19T05:37:31.229Z,99.99
2016-10-19T05:38:31.246Z,99.99
2016-10-19T05:39:46.189Z,99.99
2016-10-19T05:40:31.302Z,99.99
2016-10-19T05:41:31.310Z,99.99
2016-10-19T05:42:31.339Z,99.99
2016-10-19T05:43:31.354Z,99.99
2016-10-19T05:44:31.381Z,99.99
2016-10-19T05:46:31.424Z,99.99
2016-10-19T05:47:31.445Z,99.99
2016-10-19T05:48:31.464Z,99.99
2016-10-19T05:49:31.487Z,99.99
2016-10-19T05:51:31.530Z,99.99
2016-10-19T05:53:31.572Z,99.99
2016-10-19T05:54:31.599Z,99.99
2016-10-19T05:55:46.534Z,99.99
2016-10-19T05:56:31.638Z,99.99
2016-10-19T05:57:31.703Z,99.99
2016-10-19T05:58:31.677Z,99.99
2016-10-19T05:59:31.704Z,99.99
2016-10-19T06:00:31.728Z,99.99
2016-10-19T06:01:31.748Z,99.99
2016-10-19T06:02:31.765Z,99.99
2016-10-19T06:03:31.792Z,99.99
2016-10-19T06:04:31.814Z,99.99
2016-10-19T06:05:31.833Z,99.99
2016-10-19T06:07:31.880Z,99.99
2016-10-19T06:08:31.903Z,99.99
2016-10-19T06:09:31.919Z,99.99
2016-10-19T06:10:31.948Z,99.99
2016-10-19T06:11:46.883Z,99.99
2016-10-19T06:12:31.988Z,99.99
2016-10-19T06:13:33.015Z,99.99
2016-10-19T06:14:32.029Z,99.99
2016-10-19T06:15:32.052Z,99.99
2016-10-19T06:16:32.082Z,99.99
2016-10-19T06:17:32.095Z,99.99
2016-10-19T06:18:32.119Z,99.99
2016-10-19T06:19:32.137Z,99.99
2016-10-19T06:20:32.417Z,99.99
2016-10-19T06:22:32.206Z,99.99
2016-10-19T06:23:32.231Z,99.99
2016-10-19T06:24:32.253Z,99.99
2016-10-19T06:25:32.269Z,99.99
2016-10-19T06:26:47.210Z,99.99
2016-10-19T06:27:32.313Z,99.99
2016-10-19T06:28:32.338Z,99.99
2016-10-19T06:29:32.354Z,99.99
2016-10-19T06:30:32.378Z,99.99
2016-10-19T06:31:32.402Z,99.99
2016-10-19T06:32:32.428Z,99.99
2016-10-19T06:33:32.442Z,99.99
2016-10-19T06:34:32.469Z,99.99
2016-10-19T06:35:32.489Z,99.99
2016-10-19T06:36:32.507Z,99.99
2016-10-19T06:38:32.556Z,99.99
2016-10-19T06:39:32.575Z,99.99
2016-10-19T06:40:32.596Z,99.99
2016-10-19T06:41:32.617Z,99.99
2016-10-19T06:42:32.640Z,99.99
2016-10-19T06:43:32.657Z,99.99
2016-10-19T06:44:32.684Z,99.99
2016-10-19T06:45:32.709Z,99.99
2016-10-19T06:46:32.725Z,99.99
2016-10-19T06:47:32.746Z,99.99
2016-10-19T06:48:33.020Z,99.99
2016-10-19T06:49:32.789Z,99.99
2016-10-19T06:50:32.810Z,99.99
2016-10-19T06:51:32.832Z,99.99
2016-10-19T06:52:32.855Z,99.99
2016-10-19T06:53:32.875Z,99.99
2016-10-19T06:54:32.898Z,99.99
2016-10-19T06:56:32.942Z,99.99
2016-10-19T06:57:32.966Z,99.99
2016-10-19T06:58:47.904Z,99.99
2016-10-19T06:59:33.002Z,99.99
2016-10-19T07:00:33.063Z,99.99
2016-10-19T07:01:33.051Z,99.99
2016-10-19T07:02:33.072Z,99.99
2016-10-19T07:03:33.093Z,99.99
2016-10-19T07:04:33.114Z,99.99
2016-10-19T07:05:33.136Z,99.99
2016-10-19T07:06:33.159Z,99.99
2016-10-19T07:07:33.219Z,99.99
2016-10-19T07:08:33.195Z,99.99
2016-10-19T07:09:33.216Z,99.99
2016-10-19T07:11:33.261Z,99.99
2016-10-19T07:12:33.284Z,99.99
2016-10-19T07:13:33.312Z,99.99
2016-10-19T07:14:48.248Z,99.99
2016-10-19T07:15:33.357Z,99.99
2016-10-19T07:16:33.411Z,99.99
2016-10-19T07:17:33.393Z,99.99
2016-10-19T07:18:33.416Z,99.99
2016-10-19T07:19:33.439Z,99.99
2016-10-19T07:20:33.454Z,99.99
2016-10-19T07:21:33.483Z,99.99
2016-10-19T07:23:33.524Z,99.99
2016-10-19T07:24:33.548Z,99.99
2016-10-19T07:25:33.571Z,99.99
2016-10-19T07:27:33.609Z,99.99
2016-10-19T07:28:33.627Z,99.99
2016-10-19T07:29:33.650Z,99.99
2016-10-19T07:30:48.593Z,99.99
2016-10-19T07:31:33.700Z,99.99
2016-10-19T07:32:33.720Z,99.99
2016-10-19T07:33:33.740Z,99.99
2016-10-19T07:34:33.761Z,99.99
2016-10-19T07:35:33.787Z,99.99
2016-10-19T07:36:33.807Z,99.99
2016-10-19T07:38:33.847Z,99.99
2016-10-19T07:39:33.867Z,99.99
2016-10-19T07:40:33.897Z,99.99
2016-10-19T07:41:33.910Z,99.99
2016-10-19T07:42:33.935Z,99.99
2016-10-19T07:43:33.959Z,99.99
2016-10-19T07:44:33.980Z,99.99
2016-10-19T07:45:33.997Z,99.99
2016-10-19T07:46:48.940Z,99.99
2016-10-19T07:47:34.043Z,99.99
2016-10-19T07:48:34.061Z,99.99
2016-10-19T07:49:34.084Z,99.99
2016-10-19T07:50:34.107Z,99.99
2016-10-19T07:51:34.130Z,99.99
2016-10-19T07:52:34.151Z,99.99
2016-10-19T07:53:34.170Z,99.99
2016-10-19T07:54:34.195Z,99.99
2016-10-19T07:55:34.218Z,99.99
2016-10-19T07:56:34.236Z,99.99
2016-10-19T07:57:34.253Z,99.99
2016-10-19T07:58:34.283Z,99.99
2016-10-19T07:59:49.218Z,99.99
2016-10-19T08:00:34.319Z,99.99
2016-10-19T08:01:49.262Z,99.99
2016-10-19T08:02:34.370Z,99.99
2016-10-19T08:03:34.391Z,99.99
2016-10-19T08:04:34.406Z,99.99
2016-10-19T08:05:34.433Z,99.99
2016-10-19T08:06:34.453Z,99.99
2016-10-19T08:07:34.468Z,99.99
2016-10-19T08:08:34.495Z,99.99
2016-10-19T08:09:34.520Z,99.99
2016-10-19T08:10:34.539Z,99.99
2016-10-19T08:11:34.558Z,99.99
2016-10-19T08:12:34.585Z,99.99
2016-10-19T08:13:34.852Z,99.99
2016-10-19T08:14:34.621Z,99.99
2016-10-19T08:15:34.677Z,99.99
2016-10-19T08:16:34.663Z,99.99
2016-10-19T08:17:34.688Z,99.99
2016-10-19T08:18:34.707Z,99.99
2016-10-19T08:19:34.729Z,99.99
2016-10-19T08:20:34.752Z,99.99
2016-10-19T08:21:34.776Z,99.99
2016-10-19T08:22:35.043Z,99.99
2016-10-19T08:23:34.816Z,99.99
2016-10-19T08:24:34.838Z,99.99
2016-10-19T08:25:34.869Z,99.99
2016-10-19T08:26:34.877Z,99.99
2016-10-19T08:27:34.899Z,99.99
2016-10-19T08:28:34.922Z,99.99
2016-10-19T08:29:34.946Z,99.99
2016-10-19T08:30:34.961Z,99.99
2016-10-19T08:31:34.989Z,99.99
2016-10-19T08:32:35.040Z,99.99
2016-10-19T08:33:49.948Z,99.99
2016-10-19T08:34:35.051Z,99.99
2016-10-19T08:35:35.073Z,99.99
2016-10-19T08:36:35.095Z,99.99
2016-10-19T08:37:35.111Z,99.99
2016-10-19T08:38:35.137Z,99.99
2016-10-19T08:39:35.194Z,99.99
2016-10-19T08:40:35.175Z,99.99
2016-10-19T08:41:35.202Z,99.99
2016-10-19T08:42:35.218Z,99.99
2016-10-19T08:43:35.242Z,99.99
2016-10-19T08:44:35.262Z,99.99
2016-10-19T08:45:35.287Z,99.99
2016-10-19T08:46:35.308Z,99.99
2016-10-19T08:48:35.347Z,99.99
2016-10-19T08:49:50.292Z,99.99
2016-10-19T08:50:35.394Z,99.99
2016-10-19T08:51:35.416Z,99.99
2016-10-19T08:52:35.440Z,99.99
2016-10-19T08:53:35.459Z,99.99
2016-10-19T08:54:35.482Z,99.99
2016-10-19T08:55:35.503Z,99.99
2016-10-19T08:56:35.524Z,99.99
2016-10-19T08:57:35.546Z,99.99
2016-10-19T08:58:35.816Z,99.99
2016-10-19T08:59:35.589Z,99.99
2016-10-19T09:00:35.609Z,99.99
2016-10-19T09:01:35.629Z,99.99
2016-10-19T09:02:35.658Z,99.99
2016-10-19T09:03:35.681Z,99.99
2016-10-19T09:04:35.693Z,99.99
2016-10-19T09:05:50.633Z,99.99
2016-10-19T09:06:35.741Z,99.99
2016-10-19T09:07:35.758Z,99.99
2016-10-19T09:08:35.786Z,99.99
2016-10-19T09:09:35.801Z,99.99
2016-10-19T09:10:36.027Z,99.99
2016-10-19T09:11:35.846Z,99.99
2016-10-19T09:12:35.871Z,99.99
2016-10-19T09:13:35.891Z,99.99
2016-10-19T09:14:35.915Z,99.99
2016-10-19T09:15:35.935Z,99.99
2016-10-19T09:16:35.953Z,99.99
2016-10-19T09:17:35.976Z,99.99
2016-10-19T09:18:36.002Z,99.99
2016-10-19T09:19:36.018Z,99.99
2016-10-19T09:20:36.045Z,99.99
2016-10-19T09:21:50.980Z,99.99
2016-10-19T09:22:36.333Z,99.99
2016-10-19T09:23:36.112Z,99.99
2016-10-19T09:24:36.128Z,99.99
2016-10-19T09:25:36.152Z,99.99
2016-10-19T09:27:36.196Z,99.99
2016-10-19T09:29:36.246Z,99.99
2016-10-19T09:30:36.301Z,99.99
2016-10-19T09:31:36.285Z,99.99
2016-10-19T09:33:36.377Z,99.99
2016-10-19T09:34:36.348Z,99.99
2016-10-19T09:35:36.379Z,99.99
2016-10-19T09:36:51.315Z,99.99
2016-10-19T09:37:36.421Z,99.99
2016-10-19T09:38:36.443Z,99.99
2016-10-19T09:39:36.467Z,99.99
2016-10-19T09:40:36.485Z,99.99
2016-10-19T09:41:36.516Z,99.99
2016-10-19T09:43:36.549Z,99.99
2016-10-19T09:44:36.573Z,99.99
2016-10-19T09:45:36.597Z,99.13
2016-10-19T09:46:36.619Z,99.23
2016-10-19T09:47:36.643Z,98.75
2016-10-19T09:48:36.667Z,98.85
2016-10-19T09:49:36.689Z,98.37
2016-10-19T09:50:36.716Z,96.94
2016-10-19T09:51:36.733Z,95.89
2016-10-19T09:52:36.760Z,96.56
2016-10-19T09:53:36.781Z,97.32
2016-10-19T09:54:36.802Z,97.51
2016-10-19T09:55:36.828Z,97.51
2016-10-19T09:56:36.852Z,96.46
2016-10-19T09:57:36.875Z,96.17
2016-10-19T09:58:36.906Z,95.98
2016-10-19T10:00:37.244Z,96.94
2016-10-19T10:01:36.969Z,96.37
2016-10-19T10:02:37.295Z,97.89
2016-10-19T10:04:37.034Z,97.37
2016-10-19T10:05:37.061Z,97.66
2016-10-19T10:06:37.084Z,96.8
2016-10-19T10:07:37.109Z,96.98
2016-10-19T10:08:52.046Z,95.46
2016-10-19T10:09:37.148Z,95.75
2016-10-19T10:10:37.179Z,96.03
2016-10-19T10:11:37.200Z,93.84
2016-10-19T10:12:37.221Z,95.08
2016-10-19T10:13:37.245Z,95.08
2016-10-19T10:14:37.273Z,94.6
2016-10-19T10:15:37.288Z,94.98
2016-10-19T10:16:37.353Z,95.65
2016-10-19T10:17:37.342Z,96.51
2016-10-19T10:18:37.366Z,95.94
2016-10-19T10:19:37.388Z,95.36
2016-10-19T10:20:37.410Z,95.27
2016-10-19T10:21:37.437Z,95.46
2016-10-19T10:22:37.457Z,95.27
2016-10-19T10:23:37.479Z,95.84
2016-10-19T10:24:52.420Z,95.56
2016-10-19T10:25:37.524Z,95.56
2016-10-19T10:26:37.553Z,95.75
2016-10-19T10:27:37.569Z,95.65
2016-10-19T10:28:37.596Z,95.46
2016-10-19T10:29:37.623Z,94.03
2016-10-19T10:30:37.644Z,94.51
2016-10-19T10:31:37.672Z,95.17
2016-10-19T10:32:37.688Z,95.46
2016-10-19T10:33:37.714Z,94.98
2016-10-19T10:34:37.735Z,95.65
2016-10-19T10:35:37.770Z,95.41
2016-10-19T10:36:37.786Z,95.22
2016-10-19T10:37:37.811Z,94.93
2016-10-19T10:38:37.832Z,95.22
2016-10-19T10:39:37.852Z,95.79
2016-10-19T10:40:52.795Z,94.93
2016-10-19T10:41:37.912Z,94.65
2016-10-19T10:42:37.927Z,94.55
2016-10-19T10:43:37.947Z,94.55
2016-10-19T10:44:37.970Z,92.83
2016-10-19T10:45:37.999Z,93.21
2016-10-19T10:46:38.019Z,93.6
2016-10-19T10:47:38.046Z,93.21
2016-10-19T10:48:38.065Z,94.17
2016-10-19T10:49:38.092Z,93.6
2016-10-19T10:50:38.118Z,93.41
2016-10-19T10:51:38.139Z,93.21
2016-10-19T10:52:38.164Z,92.64
2016-10-19T10:53:38.181Z,93.31
2016-10-19T10:54:38.210Z,94.46
2016-10-19T10:55:38.235Z,93.6
2016-10-19T10:56:53.175Z,91.78
2016-10-19T10:57:38.277Z,93.02
2016-10-19T10:58:38.303Z,92.83
2016-10-19T10:59:38.328Z,92.93
2016-10-19T11:00:38.350Z,92.64
2016-10-19T11:01:38.377Z,93.12
2016-10-19T11:02:38.399Z,92.55
2016-10-19T11:03:38.418Z,93.21
2016-10-19T11:04:38.447Z,93.5
2016-10-19T11:05:38.467Z,92.83
2016-10-19T11:06:38.491Z,92.16
2016-10-19T11:07:38.517Z,93.12
2016-10-19T11:09:38.566Z,92.16
2016-10-19T11:10:38.588Z,91.78
2016-10-19T11:11:53.529Z,91.97
2016-10-19T11:12:38.640Z,92.36
2016-10-19T11:13:38.659Z,92.74
2016-10-19T11:14:38.686Z,91.3
2016-10-19T11:15:38.709Z,91.3
2016-10-19T11:16:38.729Z,91.88
2016-10-19T11:17:38.750Z,92.07
2016-10-19T11:20:38.823Z,91.3
2016-10-19T11:21:38.851Z,91.4
2016-10-19T11:22:38.872Z,89.78
2016-10-19T11:24:38.922Z,91.21
2016-10-19T11:25:38.942Z,91.21
2016-10-19T11:26:38.968Z,90.83
2016-10-19T11:27:38.993Z,92.07
2016-10-19T11:28:39.015Z,92.36
2016-10-19T11:29:39.054Z,90.92
2016-10-19T11:30:39.068Z,90.97
2016-10-19T11:31:39.090Z,90.11
2016-10-19T11:32:39.112Z,90.25
2016-10-19T11:33:39.137Z,89.59
2016-10-19T11:34:39.155Z,90.25
2016-10-19T11:36:39.204Z,90.35
2016-10-19T11:37:39.483Z,90.06
2016-10-19T11:38:39.251Z,90.73
2016-10-19T11:39:39.279Z,90.59
2016-10-19T11:40:39.303Z,90.5
2016-10-19T11:41:39.321Z,91.16
2016-10-19T11:42:39.346Z,91.26
2016-10-19T11:43:54.291Z,91.83
2016-10-19T11:44:39.399Z,91.93
2016-10-19T11:45:39.416Z,92.12
2016-10-19T11:46:39.438Z,92.21
2016-10-19T11:47:39.469Z,92.21
2016-10-19T11:48:39.488Z,91.93
2016-10-19T11:49:39.515Z,91.5
2016-10-19T11:51:39.555Z,90.83
2016-10-19T11:52:39.580Z,91.02
2016-10-19T11:53:39.611Z,90.35
2016-10-19T11:54:39.664Z,90.45
2016-10-19T11:55:39.653Z,89.73
2016-10-19T11:56:39.923Z,90.21
2016-10-19T11:57:39.703Z,90.4
2016-10-19T11:58:39.725Z,91.26
2016-10-19T11:59:54.664Z,90.78
2016-10-19T12:00:39.767Z,90.35
2016-10-19T12:01:39.794Z,91.16
2016-10-19T12:02:39.820Z,91.5
2016-10-19T12:03:39.845Z,91.11
2016-10-19T12:04:39.861Z,91.11
2016-10-19T12:05:39.887Z,91.4
2016-10-19T12:06:39.911Z,90.06
2016-10-19T12:07:39.937Z,90.45
2016-10-19T12:08:39.959Z,91.69
2016-10-19T12:09:39.979Z,91.02
2016-10-19T12:10:40.004Z,91.88
2016-10-19T12:11:40.027Z,92.26
2016-10-19T12:12:40.048Z,92.16
2016-10-19T12:13:40.078Z,91.88
2016-10-19T12:14:40.095Z,91.21
2016-10-19T12:15:55.038Z,92.36
2016-10-19T12:16:40.140Z,92.16
2016-10-19T12:17:40.166Z,92.36
2016-10-19T12:18:40.196Z,92.07
2016-10-19T12:19:40.217Z,92.16
2016-10-19T12:20:40.234Z,91.78
2016-10-19T12:21:40.263Z,91.4
2016-10-19T12:22:40.288Z,90.64
2016-10-19T12:23:40.306Z,90.78
2016-10-19T12:24:40.329Z,90.3
2016-10-19T12:25:40.353Z,89.53
2016-10-19T12:27:40.403Z,89.39
2016-10-19T12:28:40.428Z,90.16
2016-10-19T12:29:40.451Z,90.73
2016-10-19T12:30:40.473Z,90.92
2016-10-19T12:31:55.416Z,90.83
2016-10-19T12:32:40.520Z,91.59
2016-10-19T12:33:40.547Z,91.11
2016-10-19T12:34:40.564Z,91.02
2016-10-19T12:35:40.591Z,91.5
2016-10-19T12:36:40.668Z,91.59
2016-10-19T12:37:40.637Z,92.26
2016-10-19T12:39:40.690Z,92.55
2016-10-19T12:40:40.710Z,92.41
2016-10-19T12:41:40.731Z,93.93
2016-10-19T12:42:40.758Z,93.93
2016-10-19T12:44:40.804Z,95.17
2016-10-19T12:45:40.824Z,95.65
2016-10-19T12:46:55.770Z,96.22
2016-10-19T12:47:40.877Z,95.94
2016-10-19T12:48:40.904Z,95.65
2016-10-19T12:49:40.923Z,96.89
2016-10-19T12:50:40.949Z,97.18
2016-10-19T12:51:40.975Z,97.94
2016-10-19T12:52:40.994Z,97.56
2016-10-19T12:53:41.022Z,97.56
2016-10-19T12:55:41.067Z,98.71
2016-10-19T12:56:41.087Z,98.47
2016-10-19T12:57:41.114Z,97.42
2016-10-19T12:58:41.137Z,97.61
2016-10-19T12:59:41.159Z,95.51
2016-10-19T13:00:41.178Z,95.7
2016-10-19T13:01:41.205Z,96.17
2016-10-19T13:02:41.232Z,96.37
2016-10-19T13:03:41.255Z,95.32
2016-10-19T13:04:41.281Z,93.7
2016-10-19T13:05:41.300Z,92.26
2016-10-19T13:06:41.577Z,92.64
2016-10-19T13:07:41.347Z,92.64
2016-10-19T13:08:41.369Z,92.64
2016-10-19T13:09:41.406Z,93.12
2016-10-19T13:10:41.422Z,92.45
2016-10-19T13:12:41.464Z,92.16
2016-10-19T13:14:41.514Z,93.02
2016-10-19T13:15:41.540Z,92.88
2016-10-19T13:16:41.561Z,92.79
2016-10-19T13:17:41.588Z,93.26
2016-10-19T13:18:56.526Z,93.26
2016-10-19T13:19:41.630Z,93.84
2016-10-19T13:20:41.687Z,94.89
2016-10-19T13:21:41.672Z,94.41
2016-10-19T13:22:41.702Z,94.41
2016-10-19T13:23:41.725Z,95.27
2016-10-19T13:24:41.746Z,95.17
2016-10-19T13:25:41.769Z,95.17
2016-10-19T13:26:41.791Z,95.65
2016-10-19T13:27:41.815Z,96.61
2016-10-19T13:28:41.844Z,97.51
2016-10-19T13:29:41.864Z,97.8
2016-10-19T13:30:41.887Z,98.94
2016-10-19T13:31:41.913Z,99.99
2016-10-19T13:32:41.934Z,99.99
2016-10-19T13:33:41.956Z,99.99
2016-10-19T13:34:56.899Z,99.99
2016-10-19T13:35:42.000Z,99.99
2016-10-19T13:36:42.028Z,99.99
2016-10-19T13:37:42.048Z,99.99
2016-10-19T13:38:42.072Z,99.99
2016-10-19T13:39:42.091Z,99.99
2016-10-19T13:40:42.176Z,99.99
2016-10-19T13:41:42.141Z,99.99
2016-10-19T13:43:42.184Z,99.99
2016-10-19T13:44:42.211Z,99.99
2016-10-19T13:45:42.240Z,99.04
2016-10-19T13:46:42.256Z,99.52
2016-10-19T13:48:42.305Z,97.61
2016-10-19T13:49:42.325Z,97.8
2016-10-19T13:50:57.266Z,97.89
2016-10-19T13:51:42.372Z,97.99
2016-10-19T13:52:42.394Z,97.8
2016-10-19T13:53:42.419Z,98.08
2016-10-19T13:54:42.439Z,97.8
2016-10-19T13:56:42.487Z,96.75